OAK weather

Metropolitan Oakland International Airport
Oakland, California, United States

Public forecast

Using degrees Fahrenheit for public forecast. Weather courtesy of forecast.io.

Current aviation weather report (METAR) for Metropolitan Oakland International Airport

Retrieved 2019/11/21 19:53 UTC (20 minutes ago):

KOAK 211953Z 22006KT 10SM FEW012 15/06 A2989 RMK AO2 SLP120 T01500061

Aviation forecast (TAF) for Metropolitan Oakland International Airport

Retrieved 2019/11/21 18:42 UTC (2 hours ago):

TAF KOAK 211740Z 2118/2224 15006KT P6SM SKC FM212200 30008KT P6SM SKC FM220500 10005KT P6SM FEW012 FM220800 09004KT P6SM SCT010 FM221700 09004KT P6SM FEW010 FM222200 29007KT P6SM SKC